createdAt,value
2018-06-11T00:02:21.450Z,21.40
2018-06-11T00:04:50.745Z,21.40
2018-06-11T00:07:19.968Z,21.40
2018-06-11T00:09:49.325Z,21.40
2018-06-11T00:14:47.364Z,21.40
2018-06-11T00:17:16.615Z,21.30
2018-06-11T00:19:45.877Z,21.30
2018-06-11T00:22:15.115Z,21.30
2018-06-11T00:24:44.445Z,21.30
2018-06-11T00:27:13.737Z,21.30
2018-06-11T00:29:43.021Z,21.40
2018-06-11T00:32:12.303Z,21.40
2018-06-11T00:37:10.359Z,21.40
2018-06-11T00:39:39.595Z,21.40
2018-06-11T00:44:37.575Z,21.40
2018-06-11T00:49:35.577Z,21.30
2018-06-11T00:52:04.848Z,21.30
2018-06-11T00:54:34.166Z,21.30
2018-06-11T00:57:03.480Z,21.30
2018-06-11T00:59:32.793Z,21.30
2018-06-11T01:02:02.144Z,21.30
2018-06-11T01:04:31.536Z,21.30
2018-06-11T01:07:00.870Z,21.30
2018-06-11T01:11:59.033Z,21.20
2018-06-11T01:14:28.423Z,21.20
2018-06-11T01:16:57.792Z,21.30
2018-06-11T01:19:27.162Z,21.20
2018-06-11T01:21:56.499Z,21.20
2018-06-11T01:24:25.840Z,21.20
2018-06-11T01:26:55.247Z,21.10
2018-06-11T01:29:24.640Z,21.20
2018-06-11T01:31:53.992Z,21.10
2018-06-11T01:34:23.395Z,21.10
2018-06-11T01:36:52.748Z,21.10
2018-06-11T01:39:22.118Z,21.10
2018-06-11T01:41:51.543Z,21.10
2018-06-11T01:44:20.916Z,21.10
2018-06-11T01:46:50.255Z,21.00
2018-06-11T01:49:19.594Z,21.00
2018-06-11T01:51:48.928Z,21.00
2018-06-11T01:54:18.239Z,21.00
2018-06-11T01:56:47.649Z,21.00
2018-06-11T01:59:17.010Z,21.00
2018-06-11T02:01:46.357Z,21.00
2018-06-11T02:04:15.750Z,21.00
2018-06-11T02:06:45.137Z,21.00
2018-06-11T02:09:14.530Z,21.00
2018-06-11T02:11:43.954Z,21.00
2018-06-11T02:14:13.317Z,21.00
2018-06-11T02:16:42.798Z,21.00
2018-06-11T02:21:41.004Z,20.90
2018-06-11T02:24:10.362Z,20.90
2018-06-11T02:26:39.760Z,20.90
2018-06-11T02:29:09.108Z,20.90
2018-06-11T02:36:35.991Z,20.90
2018-06-11T02:39:07.333Z,20.90
2018-06-11T02:41:37.240Z,20.80
2018-06-11T02:44:06.634Z,20.80
2018-06-11T02:46:35.979Z,20.80
2018-06-11T02:49:05.514Z,20.70
2018-06-11T02:51:34.955Z,20.70
2018-06-11T02:54:04.338Z,20.60
2018-06-11T02:56:33.707Z,20.50
2018-06-11T02:59:03.074Z,20.50
2018-06-11T03:01:32.585Z,20.50
2018-06-11T03:04:01.981Z,20.50
2018-06-11T03:06:31.544Z,20.50
2018-06-11T03:09:00.892Z,20.50
2018-06-11T03:11:30.305Z,20.50
2018-06-11T03:14:00.827Z,20.50
2018-06-11T03:16:30.259Z,20.50
2018-06-11T03:18:59.608Z,20.50
2018-06-11T03:21:29.004Z,20.50
2018-06-11T03:23:58.339Z,20.50
2018-06-11T03:26:27.683Z,20.60
2018-06-11T03:28:57.080Z,20.50
2018-06-11T03:31:26.416Z,20.50
2018-06-11T03:33:55.792Z,20.40
2018-06-11T03:36:25.138Z,20.40
2018-06-11T03:38:54.543Z,20.40
2018-06-11T03:41:23.927Z,20.40
2018-06-11T03:43:53.347Z,20.40
2018-06-11T03:46:22.782Z,20.30
2018-06-11T03:48:52.177Z,20.20
2018-06-11T03:51:21.640Z,20.10
2018-06-11T03:53:50.996Z,20.00
2018-06-11T03:56:20.446Z,19.90
2018-06-11T03:58:49.817Z,19.80
2018-06-11T04:01:19.171Z,19.80
2018-06-11T04:03:48.508Z,19.80
2018-06-11T04:06:17.910Z,19.90
2018-06-11T04:08:47.248Z,19.90
2018-06-11T04:11:16.611Z,19.90
2018-06-11T04:13:46.023Z,19.90
2018-06-11T04:16:15.408Z,19.90
2018-06-11T04:18:45.458Z,19.90
2018-06-11T04:23:43.769Z,20.00
2018-06-11T04:26:13.286Z,20.00
2018-06-11T04:28:42.695Z,20.00
2018-06-11T04:31:12.086Z,20.00
2018-06-11T04:33:41.501Z,20.00
2018-06-11T04:36:10.867Z,20.00
2018-06-11T04:38:40.205Z,20.00
2018-06-11T04:41:09.544Z,19.90
2018-06-11T04:43:38.908Z,19.90
2018-06-11T04:46:08.255Z,19.90
2018-06-11T04:48:37.587Z,19.90
2018-06-11T04:51:06.988Z,19.90
2018-06-11T04:53:36.360Z,19.90
2018-06-11T04:56:05.718Z,19.90
2018-06-11T04:58:35.204Z,20.00
2018-06-11T05:01:04.584Z,20.00
2018-06-11T05:03:33.955Z,20.00
2018-06-11T05:06:03.353Z,20.00
2018-06-11T05:08:32.724Z,20.00
2018-06-11T05:11:02.106Z,20.00
2018-06-11T05:13:31.504Z,20.00
2018-06-11T05:16:00.879Z,20.00
2018-06-11T05:18:30.232Z,20.00
2018-06-11T05:20:59.621Z,20.10
2018-06-11T05:23:29.031Z,20.10
2018-06-11T05:25:58.416Z,20.10
2018-06-11T05:28:27.812Z,20.00
2018-06-11T05:30:57.171Z,20.10
2018-06-11T05:33:26.523Z,20.10
2018-06-11T05:35:55.906Z,20.10
2018-06-11T05:38:25.321Z,20.10
2018-06-11T05:43:23.552Z,20.10
2018-06-11T05:45:52.898Z,20.10
2018-06-11T05:48:22.237Z,20.10
2018-06-11T05:50:51.617Z,20.10
2018-06-11T05:53:21.229Z,20.10
2018-06-11T05:55:51.355Z,20.00
2018-06-11T05:58:21.309Z,20.10
2018-06-11T06:00:50.727Z,20.10
2018-06-11T06:03:20.144Z,20.10
2018-06-11T06:05:49.500Z,20.10
2018-06-11T06:08:18.896Z,20.10
2018-06-11T06:10:48.376Z,20.10
2018-06-11T06:13:17.808Z,20.10
2018-06-11T06:15:47.217Z,20.20
2018-06-11T06:18:16.572Z,20.20
2018-06-11T06:20:45.975Z,20.10
2018-06-11T06:25:44.337Z,20.10
2018-06-11T06:28:14.260Z,20.20
2018-06-11T06:30:43.875Z,20.20
2018-06-11T06:33:13.338Z,20.20
2018-06-11T06:35:42.744Z,20.10
2018-06-11T06:38:12.126Z,20.20
2018-06-11T06:40:41.661Z,20.20
2018-06-11T06:43:11.052Z,20.20
2018-06-11T06:45:40.418Z,20.20
2018-06-11T06:48:09.811Z,20.20
2018-06-11T06:50:39.112Z,20.20
2018-06-11T06:58:06.108Z,20.30
2018-06-11T07:00:35.468Z,20.30
2018-06-11T07:03:04.869Z,20.30
2018-06-11T07:08:04.401Z,20.40
2018-06-11T07:10:33.756Z,20.40
2018-06-11T07:13:03.080Z,20.40
2018-06-11T07:15:32.560Z,20.50
2018-06-11T07:18:01.913Z,20.50
2018-06-11T07:20:31.375Z,20.50
2018-06-11T07:23:00.789Z,20.50
2018-06-11T07:25:30.195Z,20.50
2018-06-11T07:27:59.631Z,20.50
2018-06-11T07:32:58.410Z,20.60
2018-06-11T07:35:27.906Z,20.60
2018-06-11T07:37:58.556Z,20.60
2018-06-11T07:40:28.961Z,20.70
2018-06-11T07:42:58.564Z,20.70
2018-06-11T07:45:27.923Z,20.80
2018-06-11T07:47:57.441Z,20.80
2018-06-11T07:50:26.959Z,20.80
2018-06-11T07:52:56.455Z,20.80
2018-06-11T07:55:25.833Z,20.90
2018-06-11T07:57:55.241Z,20.90
2018-06-11T08:00:24.697Z,20.90
2018-06-11T08:02:54.131Z,21.00
2018-06-11T08:05:23.529Z,21.00
2018-06-11T08:07:53.040Z,21.10
2018-06-11T08:10:22.898Z,21.10
2018-06-11T08:12:52.272Z,21.20
2018-06-11T08:15:21.685Z,21.10
2018-06-11T08:17:51.015Z,21.20
2018-06-11T08:20:20.380Z,21.20
2018-06-11T08:22:50.215Z,21.20
2018-06-11T08:25:19.612Z,21.20
2018-06-11T08:27:48.996Z,21.10
2018-06-11T08:30:18.350Z,21.20
2018-06-11T08:32:47.733Z,21.20
2018-06-11T08:35:17.146Z,21.20
2018-06-11T08:37:46.496Z,21.20
2018-06-11T08:40:15.838Z,21.20
2018-06-11T08:42:45.213Z,21.20
2018-06-11T08:45:14.512Z,21.20
2018-06-11T08:47:43.866Z,21.20
2018-06-11T08:50:13.368Z,21.30
2018-06-11T08:52:42.781Z,21.40
2018-06-11T08:55:12.471Z,21.40
2018-06-11T08:57:41.835Z,21.50
2018-06-11T09:00:11.258Z,21.60
2018-06-11T09:02:40.755Z,21.60
2018-06-11T09:05:10.154Z,21.60
2018-06-11T09:07:39.498Z,21.70
2018-06-11T09:10:08.935Z,21.80
2018-06-11T09:12:38.324Z,21.80
2018-06-11T09:15:07.799Z,21.90
2018-06-11T09:17:37.161Z,21.90
2018-06-11T09:20:06.663Z,22.00
2018-06-11T09:22:37.324Z,22.00
2018-06-11T09:25:06.825Z,22.00
2018-06-11T09:27:36.203Z,22.00
2018-06-11T09:30:06.255Z,22.10
2018-06-11T09:32:35.672Z,22.20
2018-06-11T09:35:05.123Z,22.40
2018-06-11T09:37:34.582Z,22.50
2018-06-11T09:40:04.056Z,22.60
2018-06-11T09:42:33.472Z,22.70
2018-06-11T09:45:02.836Z,22.70
2018-06-11T09:47:32.282Z,22.80
2018-06-11T09:50:01.674Z,22.80
2018-06-11T09:52:32.184Z,22.80
2018-06-11T09:55:01.572Z,23.00
2018-06-11T09:57:31.102Z,23.10
2018-06-11T10:00:00.512Z,23.30
2018-06-11T10:02:30.081Z,23.40
2018-06-11T10:05:11.574Z,23.40
2018-06-11T10:07:41.216Z,23.50
2018-06-11T10:10:10.868Z,23.60
2018-06-11T10:12:40.749Z,23.60
2018-06-11T10:15:10.187Z,23.80
2018-06-11T10:17:39.722Z,23.90
2018-06-11T10:20:09.095Z,23.90
2018-06-11T10:22:40.922Z,23.90
2018-06-11T10:25:10.385Z,23.90
2018-06-11T10:27:39.933Z,24.00
2018-06-11T10:30:09.316Z,23.90
2018-06-11T10:32:41.013Z,24.00
2018-06-11T10:37:39.471Z,24.00
2018-06-11T10:40:09.387Z,24.10
2018-06-11T10:42:39.773Z,24.10
2018-06-11T10:45:09.980Z,24.10
2018-06-11T10:47:39.426Z,24.20
2018-06-11T10:50:08.938Z,24.10
2018-06-11T10:52:38.387Z,24.20
2018-06-11T10:57:45.757Z,24.50
2018-06-11T11:00:22.530Z,24.60
2018-06-11T11:02:52.088Z,24.70
2018-06-11T11:05:21.540Z,24.80
2018-06-11T11:07:50.983Z,24.70
2018-06-11T11:10:20.327Z,24.80
2018-06-11T11:12:49.712Z,24.80
2018-06-11T11:15:19.086Z,24.90
2018-06-11T11:17:48.489Z,25.10
2018-06-11T11:20:17.928Z,25.20
2018-06-11T11:22:47.260Z,25.30
2018-06-11T11:25:16.622Z,25.40
2018-06-11T11:27:46.009Z,25.40
2018-06-11T11:30:15.391Z,25.30
2018-06-11T11:32:44.829Z,25.40
2018-06-11T11:35:15.365Z,25.50
2018-06-11T11:37:45.039Z,25.60
2018-06-11T11:40:14.449Z,25.60
2018-06-11T11:42:43.853Z,25.50
2018-06-11T11:45:13.207Z,25.40
2018-06-11T11:47:42.554Z,25.50
2018-06-11T11:50:11.950Z,25.40
2018-06-11T11:52:41.313Z,25.30
2018-06-11T11:55:10.651Z,25.10
2018-06-11T11:57:40.035Z,25.00
2018-06-11T12:00:09.444Z,24.70
2018-06-11T12:02:38.804Z,24.50
2018-06-11T12:05:08.186Z,24.30
2018-06-11T12:07:38.754Z,24.10
2018-06-11T12:10:08.174Z,23.90
2018-06-11T12:12:37.494Z,23.80
2018-06-11T12:15:07.069Z,23.80
2018-06-11T12:17:36.439Z,23.70
2018-06-11T12:20:05.882Z,23.60
2018-06-11T12:22:35.412Z,23.50
2018-06-11T12:25:04.817Z,23.40
2018-06-11T12:27:34.250Z,23.20
2018-06-11T12:30:03.837Z,23.00
2018-06-11T12:32:33.268Z,22.80
2018-06-11T12:35:02.645Z,22.70
2018-06-11T12:37:32.575Z,22.60
2018-06-11T12:40:02.030Z,22.50
2018-06-11T12:47:29.096Z,22.20
2018-06-11T12:57:24.991Z,22.10
2018-06-11T12:59:54.436Z,22.00
2018-06-11T13:02:24.231Z,22.00
2018-06-11T13:04:53.570Z,21.90
2018-06-11T13:07:23.010Z,21.90
2018-06-11T13:09:52.402Z,21.90
2018-06-11T13:12:21.796Z,21.80
2018-06-11T13:14:51.282Z,21.70
2018-06-11T13:17:20.770Z,21.70
2018-06-11T13:19:50.250Z,21.80
2018-06-11T13:22:19.689Z,21.80
2018-06-11T13:24:49.193Z,21.90
2018-06-11T13:27:18.666Z,21.90
2018-06-11T13:29:48.145Z,22.00
2018-06-11T13:32:17.585Z,22.00
2018-06-11T13:34:48.576Z,22.00
2018-06-11T13:37:18.958Z,22.10
2018-06-11T13:39:48.590Z,22.10
2018-06-11T13:42:19.082Z,22.20
2018-06-11T13:44:48.648Z,22.20
2018-06-11T13:47:18.159Z,22.30
2018-06-11T13:49:47.688Z,22.40
2018-06-11T13:52:18.004Z,22.50
2018-06-11T13:54:48.093Z,22.60
2018-06-11T13:59:48.182Z,22.80
2018-06-11T14:02:17.706Z,22.80
2018-06-11T14:04:48.613Z,22.80
2018-06-11T14:07:19.373Z,22.90
2018-06-11T14:09:49.151Z,22.90
2018-06-11T14:12:22.966Z,22.90
2018-06-11T14:14:52.539Z,23.00
2018-06-11T14:19:50.746Z,23.00
2018-06-11T14:22:20.188Z,23.00
2018-06-11T14:24:49.548Z,22.90
2018-06-11T14:27:18.916Z,22.90
2018-06-11T14:32:17.136Z,22.90
2018-06-11T14:34:46.520Z,22.90
2018-06-11T14:37:16.204Z,23.00
2018-06-11T14:39:45.704Z,23.00
2018-06-11T14:42:15.077Z,22.80
2018-06-11T14:44:44.544Z,22.70
2018-06-11T14:47:13.953Z,22.70
2018-06-11T14:49:43.283Z,22.60
2018-06-11T14:52:12.768Z,22.50
2018-06-11T14:54:42.607Z,22.40
2018-06-11T14:57:12.005Z,22.20
2018-06-11T14:59:41.988Z,22.10
2018-06-11T15:02:11.469Z,22.00
2018-06-11T15:07:09.833Z,22.00
2018-06-11T15:12:08.286Z,22.00
2018-06-11T15:14:37.695Z,21.90
2018-06-11T15:17:07.270Z,21.70
2018-06-11T15:19:36.608Z,21.80
2018-06-11T15:22:05.989Z,21.80
2018-06-11T15:24:35.510Z,21.80
2018-06-11T15:27:04.872Z,21.80
2018-06-11T15:29:34.295Z,21.70
2018-06-11T15:34:32.545Z,21.70
2018-06-11T15:37:02.133Z,21.70
2018-06-11T15:39:31.646Z,21.70
2018-06-11T15:42:01.023Z,21.70
2018-06-11T15:44:30.407Z,21.70
2018-06-11T15:47:00.258Z,21.70
2018-06-11T15:49:29.636Z,21.70
2018-06-11T15:51:58.999Z,21.60
2018-06-11T15:54:28.396Z,21.40
2018-06-11T15:56:57.796Z,21.30
2018-06-11T15:59:27.146Z,21.20
2018-06-11T16:01:56.530Z,21.20
2018-06-11T16:04:26.031Z,21.10
2018-06-11T16:09:25.456Z,21.10
2018-06-11T16:11:55.546Z,21.10
2018-06-11T16:14:25.951Z,21.10
2018-06-11T16:16:56.016Z,21.00
2018-06-11T16:19:26.155Z,21.00
2018-06-11T16:21:57.181Z,21.10
2018-06-11T16:24:27.491Z,21.20
2018-06-11T16:26:57.983Z,21.20
2018-06-11T16:29:27.429Z,21.20
2018-06-11T16:31:57.245Z,21.20
2018-06-11T16:34:26.856Z,21.30
2018-06-11T16:36:57.410Z,21.30
2018-06-11T16:39:27.546Z,21.40
2018-06-11T16:41:57.372Z,21.40
2018-06-11T16:44:26.929Z,21.50
2018-06-11T16:46:57.647Z,21.50
2018-06-11T16:51:56.487Z,21.60
2018-06-11T16:54:27.127Z,21.70
2018-06-11T16:56:57.240Z,21.70
2018-06-11T16:59:27.212Z,21.80
2018-06-11T17:04:26.455Z,21.80
2018-06-11T17:06:56.060Z,21.80
2018-06-11T17:09:25.481Z,21.90
2018-06-11T17:11:54.879Z,21.90
2018-06-11T17:14:24.703Z,21.90
2018-06-11T17:16:54.045Z,21.90
2018-06-11T17:21:52.339Z,21.80
2018-06-11T17:26:50.719Z,21.80
2018-06-11T17:29:20.175Z,21.80
2018-06-11T17:31:49.658Z,21.80
2018-06-11T17:34:19.199Z,21.80
2018-06-11T17:36:48.595Z,21.80
2018-06-11T17:39:18.013Z,21.70
2018-06-11T17:44:19.939Z,21.70
2018-06-11T17:46:49.679Z,21.70
2018-06-11T17:49:21.437Z,21.70
2018-06-11T17:51:52.136Z,21.60
2018-06-11T17:54:22.405Z,21.70
2018-06-11T17:56:51.950Z,21.70
2018-06-11T17:59:21.441Z,21.70
2018-06-11T18:01:51.449Z,21.70
2018-06-11T18:04:20.914Z,21.70
2018-06-11T18:06:50.265Z,21.70
2018-06-11T18:09:19.767Z,21.70
2018-06-11T18:11:49.204Z,21.70
2018-06-11T18:14:19.660Z,21.80
2018-06-11T18:16:49.059Z,21.80
2018-06-11T18:19:18.399Z,21.70
2018-06-11T18:21:48.699Z,21.80
2018-06-11T18:24:18.206Z,21.80
2018-06-11T18:26:47.592Z,21.80
2018-06-11T18:29:17.008Z,21.80
2018-06-11T18:31:46.691Z,21.80
2018-06-11T18:34:16.125Z,21.80
2018-06-11T18:36:45.531Z,21.80
2018-06-11T18:39:14.972Z,21.80
2018-06-11T18:41:44.326Z,21.90
2018-06-11T18:44:13.745Z,21.90
2018-06-11T18:46:43.229Z,21.90
2018-06-11T18:49:13.826Z,21.80
2018-06-11T18:51:43.261Z,21.80
2018-06-11T18:54:12.708Z,21.80
2018-06-11T18:56:42.354Z,21.80
2018-06-11T18:59:11.766Z,21.70
2018-06-11T19:01:41.126Z,21.80
2018-06-11T19:04:10.679Z,21.70
2018-06-11T19:06:40.216Z,21.70
2018-06-11T19:09:10.406Z,21.70
2018-06-11T19:11:39.920Z,21.70
2018-06-11T19:14:09.504Z,21.80
2018-06-11T19:16:38.963Z,21.80
2018-06-11T19:19:08.437Z,21.70
2018-06-11T19:21:37.775Z,21.70
2018-06-11T19:24:07.271Z,21.70
2018-06-11T19:26:36.840Z,21.60
2018-06-11T19:29:06.382Z,21.70
2018-06-11T19:31:35.947Z,21.70
2018-06-11T19:34:05.685Z,21.70
2018-06-11T19:36:35.193Z,21.60
2018-06-11T19:39:06.054Z,21.60
2018-06-11T19:41:35.556Z,21.60
2018-06-11T19:46:34.007Z,21.50
2018-06-11T19:49:03.576Z,21.50
2018-06-11T19:51:33.842Z,21.40
2018-06-11T19:54:03.473Z,21.50
2018-06-11T19:56:33.055Z,21.50
2018-06-11T19:59:02.442Z,21.40
2018-06-11T20:01:31.831Z,21.40
2018-06-11T20:04:01.470Z,21.40
2018-06-11T20:06:30.928Z,21.40
2018-06-11T20:11:31.085Z,21.40
2018-06-11T20:14:00.777Z,21.40
2018-06-11T20:16:30.246Z,21.40
2018-06-11T20:18:59.915Z,21.50
2018-06-11T20:21:29.327Z,21.40
2018-06-11T20:23:58.780Z,21.40
2018-06-11T20:26:28.373Z,21.50
2018-06-11T20:28:57.736Z,21.50
2018-06-11T20:31:27.191Z,21.40
2018-06-11T20:33:56.650Z,21.40
2018-06-11T20:36:26.033Z,21.40
2018-06-11T20:38:55.562Z,21.40
2018-06-11T20:41:25.029Z,21.40
2018-06-11T20:43:54.392Z,21.30
2018-06-11T20:46:24.017Z,21.40
2018-06-11T20:48:53.472Z,21.40
2018-06-11T20:51:23.994Z,21.40
2018-06-11T20:53:53.551Z,21.40
2018-06-11T20:56:22.886Z,21.40
2018-06-11T20:58:52.317Z,21.30
2018-06-11T21:01:22.540Z,21.30
2018-06-11T21:03:51.958Z,21.30
2018-06-11T21:06:21.386Z,21.30
2018-06-11T21:08:50.783Z,21.30
2018-06-11T21:11:20.278Z,21.30
2018-06-11T21:13:49.892Z,21.30
2018-06-11T21:16:19.569Z,21.30
2018-06-11T21:18:49.002Z,21.30
2018-06-11T21:21:18.363Z,21.30
2018-06-11T21:23:47.751Z,21.30
2018-06-11T21:26:17.128Z,21.30
2018-06-11T21:33:44.129Z,21.20
2018-06-11T21:36:13.825Z,21.30
2018-06-11T21:38:43.455Z,21.20
2018-06-11T21:41:12.985Z,21.20
2018-06-11T21:43:42.343Z,21.20
2018-06-11T21:46:11.883Z,21.30
2018-06-11T21:48:41.256Z,21.20
2018-06-11T21:51:10.665Z,21.20
2018-06-11T21:53:40.193Z,21.20
2018-06-11T21:56:09.596Z,21.20
2018-06-11T21:58:39.177Z,21.20
2018-06-11T22:01:09.914Z,21.20
2018-06-11T22:03:39.440Z,21.20
2018-06-11T22:06:08.799Z,21.20
2018-06-11T22:08:38.176Z,21.20
2018-06-11T22:11:07.602Z,21.20
2018-06-11T22:13:37.017Z,21.20
2018-06-11T22:16:06.535Z,21.20
2018-06-11T22:18:35.938Z,21.30
2018-06-11T22:21:05.364Z,21.30
2018-06-11T22:23:34.709Z,21.30
2018-06-11T22:26:04.103Z,21.30
2018-06-11T22:28:33.565Z,21.30
2018-06-11T22:31:03.026Z,21.20
2018-06-11T22:36:02.169Z,21.20
2018-06-11T22:38:31.565Z,21.10
2018-06-11T22:41:00.931Z,21.10
2018-06-11T22:48:28.397Z,21.10
2018-06-11T22:50:57.721Z,21.10
2018-06-11T22:53:27.120Z,21.00
2018-06-11T22:55:56.484Z,21.00
2018-06-11T22:58:25.863Z,21.00
2018-06-11T23:00:55.243Z,21.00
2018-06-11T23:03:24.591Z,21.00
2018-06-11T23:05:53.937Z,21.00
2018-06-11T23:08:23.372Z,21.00
2018-06-11T23:10:52.716Z,21.00
2018-06-11T23:13:22.068Z,21.00
2018-06-11T23:15:51.468Z,21.00
2018-06-11T23:18:20.875Z,21.00
2018-06-11T23:20:50.249Z,21.00
2018-06-11T23:23:19.668Z,21.00
2018-06-11T23:25:49.320Z,21.00
2018-06-11T23:28:18.702Z,21.00
2018-06-11T23:30:48.193Z,21.00
2018-06-11T23:33:17.709Z,21.00
2018-06-11T23:35:47.251Z,21.00
2018-06-11T23:38:17.837Z,21.00
2018-06-11T23:40:47.351Z,21.00
2018-06-11T23:43:16.778Z,21.00
2018-06-11T23:45:46.148Z,21.00
2018-06-11T23:48:15.630Z,21.00
2018-06-11T23:50:45.005Z,21.00
2018-06-11T23:53:14.388Z,21.00
2018-06-11T23:55:43.760Z,21.00
2018-06-11T23:58:13.117Z,21.00
